Terminal Aerodrome Forecast
Issued by NWS Shreveport, LA

Current Version | Previous Version | Text Only | Print | Product List | Glossary On
Versions: 1 2 3 4 5 6 7 8 9 10 11 12 13 14 15 16 17 18 19 20 21 22 23 24 25 26 27 28
000
FTUS44 KSHV 221700 CCB
TAFLFK
TAF COR
KLFK 221750Z 2218/2318 24005KT P6SM SCT030
     FM230000 16004KT P6SM SCT035
      TEMPO 2310/2314 1SM BR BKN015
     FM231400 22005KT P6SM FEW050=

USA.gov is the U.S. government's official web portal to all federal, state and local government web resources and services.